Kenosha, WI (53140)

10:15 AM CST on February 09, 2016 (GMT -0600)
APRSWXNET | | Change Station
CLOSE
Current Station
Personal Weather Station
Location: Kenosha, WI
Elevation: 613 ft
Nearby Weather Stations

Elev 613 ft 42.60 °N, 87.83 °W | Updated 27 minutes ago

Mostly Cloudy
Mostly Cloudy
17 °F
Feels Like 17 °F
N
3
Wind Variable Wind from NW
Gusts 10.0 mph

Today
High -- | Low -- °F
--% Chance of Precip.
Yesterday
High -- | Low -- °F
Precip. -- in
Pressure 29.86 in
Visibility 10.0 miles
Clouds Clear
Windchill 17 °F
Dew Point 10 °F
Humidity 74%
Rainfall in
Snow Depth Not available.
6:56 AM 5:14 PM
New Moon, 2% visible
METAR KENW 091553Z 33013G22KT 10SM CLR M09/M14 A2981 RMK AO2 SLP109 T10941144
Pressure 29.86 in
Visibility 10.0 miles
Clouds Clear
Windchill 17 °F
Dew Point 10 °F
Humidity 74%
Rainfall in
Snow Depth Not available.
6:56 AM 5:14 PM
New Moon, 2% visible
METAR KENW 091553Z 33013G22KT 10SM CLR M09/M14 A2981 RMK AO2 SLP109 T10941144

10-Day Weather Forecast

Almanac

Astronomy

Feb. 09, 2016 Rise Set
Actual Time
Civil Twilight
Nautical Twilight
Astronomical Twilight
Moon
Length of Visible Light
Length of Day
Tomorrow will be .
, % of the Moon is Illuminated

Today's Extremes

State Highs State Lows

Community

WunderPhotos

Upload Photos

1,891,629 photos uploaded!

WunderBlog® & News

Nearby

Air Quality

  Air Quality AQ Index Pollutant
Not available.

Snow Depth

Station Depth Elevation

Earthquake Activity

City Distance Mag. Time & Date
Minimum magnitude displayed is 2.5.

Coastal Water Temperatures

Place Temperature

Stations

Nearby Weather Stations

Station Location Temp. Windchill Dew Point Humidity Wind Precip. Elev Updated Type
                   

Watches & Warnings

There are currently no watches in effect.